Time;durP1;ratioP1;P1;durP2;ratioP2;P2;SDS_P1;SDS_P2;PMS_P1;PMS_P2;Temp;Humidity;BMP_temperature;BMP_pressure;BME280_temperature;BME280_humidity;BME280_pressure;Samples;Min_cycle;Max_cycle;Signal;HPM_P1;HPM_P2
2023/03/09 00:01:30;;;;;;;;;7.25;7.00;;;;;;;;119962;1182;25233;-58
2023/03/09 00:03:59;;;;;;;;;11.50;8.00;;;;;;;;120114;1190;25617;-58
2023/03/09 00:06:29;;;;;;;;;9.00;8.75;;;;;;;;119970;1182;25657;-58
2023/03/09 00:08:57;;;;;;;;;7.25;6.00;;;;;;;;119970;1190;25269;-58
2023/03/09 00:11:26;;;;;;;;;9.00;9.00;;;;;;;;119956;1190;25223;-58
2023/03/09 00:13:55;;;;;;;;;10.00;8.50;;;;;;;;119961;1181;25541;-58
2023/03/09 00:16:26;;;;;;;;;12.75;10.00;;;;;;;;119958;1190;25100;-58
2023/03/09 00:18:57;;;;;;;;;10.25;9.25;;;;;;;;120123;1182;25499;-58
2023/03/09 00:21:40;;;;;;;;;10.50;8.25;;;;;;;;119966;1190;24893;-58
2023/03/09 00:24:15;;;;;;;;;8.50;7.25;;;;;;;;119964;1190;25782;-58
2023/03/09 00:26:48;;;;;;;;;10.00;8.00;;;;;;;;119958;1190;25173;-58
2023/03/09 00:29:16;;;;;;;;;9.25;7.75;;;;;;;;119950;1190;25739;-58
2023/03/09 00:31:45;;;;;;;;;12.33;11.00;;;;;;;;120129;1190;25414;-58
2023/03/09 00:34:15;;;;;;;;;11.00;7.00;;;;;;;;119936;1190;24964;-58
2023/03/09 00:36:44;;;;;;;;;10.50;8.00;;;;;;;;120096;1190;24975;-58
2023/03/09 00:39:14;;;;;;;;;7.00;6.50;;;;;;;;119935;1190;24698;-58
2023/03/09 00:41:42;;;;;;;;;8.00;8.00;;;;;;;;119971;1190;24775;-58
2023/03/09 00:44:11;;;;;;;;;5.50;5.00;;;;;;;;119947;1190;25542;-58
2023/03/09 00:46:40;;;;;;;;;7.00;7.00;;;;;;;;119971;1190;25488;-58
2023/03/09 00:49:12;;;;;;;;;12.00;9.00;;;;;;;;119917;1190;25713;-58
2023/03/09 00:51:41;;;;;;;;;7.50;7.50;;;;;;;;119946;1190;25339;-58
2023/03/09 00:54:12;;;;;;;;;8.33;7.00;;;;;;;;119936;1190;25199;-58
2023/03/09 00:56:41;;;;;;;;;12.67;7.00;;;;;;;;119932;1182;25331;-57
2023/03/09 00:59:10;;;;;;;;;8.00;7.00;;;;;;;;120112;1181;25541;-58
2023/03/09 01:01:39;;;;;;;;;10.50;7.75;;;;;;;;120114;1182;25159;-58
2023/03/09 01:04:08;;;;;;;;;8.75;7.75;;;;;;;;119943;1182;25426;-58
2023/03/09 01:06:36;;;;;;;;;6.00;6.00;;;;;;;;119980;1183;25411;-58
2023/03/09 01:09:05;;;;;;;;;8.50;7.25;;;;;;;;119948;1190;24841;-58
2023/03/09 01:11:33;;;;;;;;;7.00;5.67;;;;;;;;120127;1181;24908;-58
2023/03/09 01:14:01;;;;;;;;;7.25;4.50;;;;;;;;120129;1189;24668;-58
2023/03/09 01:16:29;;;;;;;;;7.50;6.25;;;;;;;;119943;1190;25135;-58
2023/03/09 01:18:58;;;;;;;;;8.00;7.33;;;;;;;;119962;1190;25411;-58
2023/03/09 01:21:26;;;;;;;;;7.67;6.67;;;;;;;;120125;1182;25168;-58
2023/03/09 01:23:54;;;;;;;;;8.75;7.00;;;;;;;;120122;1182;25460;-58
2023/03/09 01:26:22;;;;;;;;;12.00;7.75;;;;;;;;120099;1190;25518;-58
2023/03/09 01:28:50;;;;;;;;;7.00;7.00;;;;;;;;120117;1190;25218;-58
2023/03/09 01:31:19;;;;;;;;;12.67;7.00;;;;;;;;120125;1189;24690;-59
2023/03/09 01:33:48;;;;;;;;;8.33;6.33;;;;;;;;120111;1190;24684;-58
2023/03/09 01:36:18;;;;;;;;;6.50;5.50;;;;;;;;120109;1189;24738;-58
2023/03/09 01:38:46;;;;;;;;;8.00;8.00;;;;;;;;119933;1190;25393;-58
2023/03/09 01:41:20;;;;;;;;;6.25;6.25;;;;;;;;119931;1190;24711;-58
2023/03/09 01:43:50;;;;;;;;;10.67;7.33;;;;;;;;119975;1189;26062;-58
2023/03/09 01:46:24;;;;;;;;;9.00;8.50;;;;;;;;120105;1190;25048;-58
2023/03/09 01:49:08;;;;;;;;;7.50;6.50;;;;;;;;120110;1189;25302;-58
2023/03/09 01:51:41;;;;;;;;;6.67;5.67;;;;;;;;120121;1190;25523;-58
2023/03/09 01:54:16;;;;;;;;;8.00;8.00;;;;;;;;119947;1190;25184;-58
2023/03/09 01:56:45;;;;;;;;;10.33;8.33;;;;;;;;119941;1190;26262;-58
2023/03/09 01:59:14;;;;;;;;;8.00;6.67;;;;;;;;119937;1190;25167;-58
2023/03/09 02:01:43;;;;;;;;;8.00;7.00;;;;;;;;119951;1190;25321;-58
2023/03/09 02:04:17;;;;;;;;;8.25;7.00;;;;;;;;119954;1179;26389;-58
2023/03/09 02:06:45;;;;;;;;;7.50;6.75;;;;;;;;120111;1181;25466;-58
2023/03/09 02:09:38;;;;;;;;;10.00;8.33;;;;;;;;119937;1190;25502;-58
2023/03/09 02:12:09;;;;;;;;;8.00;6.75;;;;;;;;120121;1190;25438;-58
2023/03/09 02:14:37;;;;;;;;;8.75;7.25;;;;;;;;119959;1190;25651;-58
2023/03/09 02:17:05;;;;;;;;;6.25;5.50;;;;;;;;120129;1190;25523;-58
2023/03/09 02:19:40;;;;;;;;;7.75;7.00;;;;;;;;120107;1190;25276;-58
2023/03/09 02:22:08;;;;;;;;;4.50;4.50;;;;;;;;120129;1182;24853;-58
2023/03/09 02:25:12;;;;;;;;;7.00;6.00;;;;;;;;119940;1190;25004;-58
2023/03/09 02:27:40;;;;;;;;;9.33;7.00;;;;;;;;120119;1190;25105;-58
2023/03/09 02:30:11;;;;;;;;;7.25;5.50;;;;;;;;119928;1190;25239;-58
2023/03/09 02:32:39;;;;;;;;;8.00;8.00;;;;;;;;120113;1190;25707;-58
2023/03/09 02:35:10;;;;;;;;;8.00;6.33;;;;;;;;120108;1182;25238;-58
2023/03/09 02:37:40;;;;;;;;;8.00;6.33;;;;;;;;120100;1190;24978;-58
2023/03/09 02:40:15;;;;;;;;;7.25;6.00;;;;;;;;119952;1190;25255;-58
2023/03/09 02:42:45;;;;;;;;;9.00;7.00;;;;;;;;120105;1190;25374;-58
2023/03/09 02:45:16;;;;;;;;;7.00;7.00;;;;;;;;120119;1190;24763;-58
2023/03/09 02:47:46;;;;;;;;;6.00;6.00;;;;;;;;119951;1190;24944;-58
2023/03/09 02:50:15;;;;;;;;;6.25;5.75;;;;;;;;120113;1190;25231;-58
2023/03/09 02:52:43;;;;;;;;;8.67;7.33;;;;;;;;120119;1190;25517;-58
2023/03/09 02:55:12;;;;;;;;;5.50;5.00;;;;;;;;120107;1190;25080;-58
2023/03/09 02:57:42;;;;;;;;;9.25;7.50;;;;;;;;119933;1187;25530;-58
2023/03/09 03:00:12;;;;;;;;;6.50;5.75;;;;;;;;120085;1190;25328;-59
2023/03/09 03:02:41;;;;;;;;;6.00;5.33;;;;;;;;119940;1182;25494;-58
2023/03/09 03:05:09;;;;;;;;;6.00;6.00;;;;;;;;119943;1190;25565;-58
2023/03/09 03:07:37;;;;;;;;;8.67;8.00;;;;;;;;119937;1190;24800;-58
2023/03/09 03:10:06;;;;;;;;;7.00;7.00;;;;;;;;120108;1189;25738;-58
2023/03/09 03:12:34;;;;;;;;;7.00;5.00;;;;;;;;120122;1185;25943;-58
2023/03/09 03:15:04;;;;;;;;;10.25;8.50;;;;;;;;120106;1181;24942;-58
2023/03/09 03:17:32;;;;;;;;;6.00;5.00;;;;;;;;119925;1190;24808;-58
2023/03/09 03:20:00;;;;;;;;;7.50;6.75;;;;;;;;119959;1183;24998;-58
2023/03/09 03:22:29;;;;;;;;;6.50;6.25;;;;;;;;119918;1189;25224;-58
2023/03/09 03:24:57;;;;;;;;;10.33;7.33;;;;;;;;120125;1189;25345;-58
2023/03/09 03:27:25;;;;;;;;;6.50;5.75;;;;;;;;120120;1190;24786;-58
2023/03/09 03:29:53;;;;;;;;;5.00;4.00;;;;;;;;120102;1190;24859;-58
2023/03/09 03:32:21;;;;;;;;;7.00;6.25;;;;;;;;120100;1181;24812;-58
2023/03/09 03:34:50;;;;;;;;;7.00;5.33;;;;;;;;120109;1190;24677;-58
2023/03/09 03:37:18;;;;;;;;;5.25;5.25;;;;;;;;120129;1190;25329;-58
2023/03/09 03:39:46;;;;;;;;;5.25;5.00;;;;;;;;120093;1189;25532;-58
2023/03/09 03:42:14;;;;;;;;;6.33;6.33;;;;;;;;120116;1189;24800;-58
2023/03/09 03:44:42;;;;;;;;;7.00;7.00;;;;;;;;120097;1190;25023;-58
2023/03/09 03:47:10;;;;;;;;;9.67;7.67;;;;;;;;120124;1182;24955;-58
2023/03/09 03:49:40;;;;;;;;;5.75;5.75;;;;;;;;120121;1190;25230;-58
2023/03/09 03:52:09;;;;;;;;;7.25;6.25;;;;;;;;120109;1182;25463;-58
2023/03/09 03:54:37;;;;;;;;;5.50;5.50;;;;;;;;119960;1190;25518;-58
2023/03/09 03:57:05;;;;;;;;;7.50;5.75;;;;;;;;120114;1189;24825;-58
2023/03/09 03:59:36;;;;;;;;;3.25;2.75;;;;;;;;120105;1190;25347;-58
2023/03/09 04:02:04;;;;;;;;;8.00;5.50;;;;;;;;120114;1182;25533;-57
2023/03/09 04:04:33;;;;;;;;;6.50;5.00;;;;;;;;120109;1189;25043;-57
2023/03/09 04:07:01;;;;;;;;;5.50;5.50;;;;;;;;120107;1190;24984;-57
2023/03/09 04:09:30;;;;;;;;;8.00;5.00;;;;;;;;120109;1176;25148;-57
2023/03/09 04:11:58;;;;;;;;;5.33;5.00;;;;;;;;120110;1190;25091;-57
2023/03/09 04:14:26;;;;;;;;;6.67;5.67;;;;;;;;120084;1190;24958;-57
2023/03/09 04:16:54;;;;;;;;;10.33;7.00;;;;;;;;120110;1190;25572;-57
2023/03/09 04:19:24;;;;;;;;;8.25;6.00;;;;;;;;120116;1190;25007;-57
2023/03/09 04:21:53;;;;;;;;;6.50;6.00;;;;;;;;120178;1182;25679;-57
2023/03/09 04:24:21;;;;;;;;;6.00;5.50;;;;;;;;120115;1189;26027;-57
2023/03/09 04:26:49;;;;;;;;;6.25;6.00;;;;;;;;120115;1189;25594;-57
2023/03/09 04:29:17;;;;;;;;;6.33;6.33;;;;;;;;120120;1190;25546;-57
2023/03/09 04:31:46;;;;;;;;;7.00;5.50;;;;;;;;120099;1190;25061;-57
2023/03/09 04:34:14;;;;;;;;;8.00;7.00;;;;;;;;119934;1190;25626;-57
2023/03/09 04:36:43;;;;;;;;;5.75;5.75;;;;;;;;120102;1189;25053;-57
2023/03/09 04:39:11;;;;;;;;;7.25;5.50;;;;;;;;120127;1190;24786;-57
2023/03/09 04:41:39;;;;;;;;;7.75;6.25;;;;;;;;120102;1189;25066;-57
2023/03/09 04:44:07;;;;;;;;;7.25;6.50;;;;;;;;120124;1190;24998;-57
2023/03/09 04:46:35;;;;;;;;;7.33;6.33;;;;;;;;120129;1182;25155;-58
2023/03/09 04:49:03;;;;;;;;;5.50;5.50;;;;;;;;120125;1182;25307;-57
2023/03/09 04:51:32;;;;;;;;;5.33;5.33;;;;;;;;120121;1182;24782;-57
2023/03/09 04:54:00;;;;;;;;;8.25;6.75;;;;;;;;120099;1190;25419;-57
2023/03/09 04:56:28;;;;;;;;;7.00;5.33;;;;;;;;120113;1190;24746;-58
2023/03/09 04:58:56;;;;;;;;;7.50;7.50;;;;;;;;120109;1190;24749;-58
2023/03/09 05:01:24;;;;;;;;;7.00;5.67;;;;;;;;120086;1190;25458;-58
2023/03/09 05:03:52;;;;;;;;;5.50;5.50;;;;;;;;120126;1189;25486;-57
2023/03/09 05:06:21;;;;;;;;;5.25;5.25;;;;;;;;119945;1182;24794;-57
2023/03/09 05:08:49;;;;;;;;;7.50;4.75;;;;;;;;120097;1189;25099;-58
2023/03/09 05:11:17;;;;;;;;;6.25;6.00;;;;;;;;120124;1189;25092;-58
2023/03/09 05:13:45;;;;;;;;;7.00;6.67;;;;;;;;120107;1189;25390;-58
2023/03/09 05:16:13;;;;;;;;;3.75;3.75;;;;;;;;120106;1190;25324;-58
2023/03/09 05:18:42;;;;;;;;;7.00;5.33;;;;;;;;120112;1190;25655;-57
2023/03/09 05:21:10;;;;;;;;;6.25;6.25;;;;;;;;119949;1182;24804;-58
2023/03/09 05:23:38;;;;;;;;;8.50;7.00;;;;;;;;119956;1190;25115;-57
2023/03/09 05:26:07;;;;;;;;;6.00;6.00;;;;;;;;119910;1190;26244;-57
2023/03/09 05:28:36;;;;;;;;;7.00;5.50;;;;;;;;119912;1190;25240;-57
2023/03/09 05:31:09;;;;;;;;;8.00;6.00;;;;;;;;119867;1190;24986;-58
2023/03/09 05:33:38;;;;;;;;;8.50;5.00;;;;;;;;119886;1190;26337;-57
2023/03/09 05:36:25;;;;;;;;;7.00;7.00;;;;;;;;119916;1190;25435;-58
2023/03/09 05:38:53;;;;;;;;;10.33;7.67;;;;;;;;119929;1190;24819;-59
2023/03/09 05:41:22;;;;;;;;;7.50;6.75;;;;;;;;119911;1182;24888;-59
2023/03/09 05:43:50;;;;;;;;;7.00;7.00;;;;;;;;119926;1190;25675;-59
2023/03/09 05:46:18;;;;;;;;;4.50;4.25;;;;;;;;119889;1190;25221;-59
2023/03/09 05:48:48;;;;;;;;;8.00;6.00;;;;;;;;119908;1190;25414;-59
2023/03/09 05:51:17;;;;;;;;;5.00;5.00;;;;;;;;119883;1190;25047;-59
2023/03/09 05:53:45;;;;;;;;;8.00;5.33;;;;;;;;119898;1187;25054;-58
2023/03/09 05:56:13;;;;;;;;;7.67;6.33;;;;;;;;119914;1190;25367;-58
2023/03/09 05:58:41;;;;;;;;;8.00;6.00;;;;;;;;119942;1190;25181;-58
2023/03/09 06:01:17;;;;;;;;;6.33;4.00;;;;;;;;119919;1190;24818;-56
2023/03/09 06:03:46;;;;;;;;;7.50;6.50;;;;;;;;119915;1182;25336;-56
2023/03/09 06:06:14;;;;;;;;;5.67;5.00;;;;;;;;119908;1190;25122;-56
2023/03/09 06:08:42;;;;;;;;;4.00;4.00;;;;;;;;119907;1190;25316;-58
2023/03/09 06:11:11;;;;;;;;;6.00;6.00;;;;;;;;119925;1182;25593;-57
2023/03/09 06:13:39;;;;;;;;;6.00;5.00;;;;;;;;119910;1182;24961;-59
2023/03/09 06:16:10;;;;;;;;;6.25;2.25;;;;;;;;119921;1190;25242;-59
2023/03/09 06:18:38;;;;;;;;;7.00;6.33;;;;;;;;119889;1190;25309;-58
2023/03/09 06:21:07;;;;;;;;;9.00;8.00;;;;;;;;119942;1190;25073;-58
2023/03/09 06:23:36;;;;;;;;;5.00;5.00;;;;;;;;119905;1190;25997;-58
2023/03/09 06:26:06;;;;;;;;;9.00;7.00;;;;;;;;119927;1190;24809;-58
2023/03/09 06:28:35;;;;;;;;;2.67;2.00;;;;;;;;119891;1190;25327;-58
2023/03/09 06:31:13;;;;;;;;;7.00;6.00;;;;;;;;119892;1190;25285;-58
2023/03/09 06:33:42;;;;;;;;;7.33;6.00;;;;;;;;119739;1184;24777;-58
2023/03/09 06:36:13;;;;;;;;;7.50;7.50;;;;;;;;120031;1179;25590;-58
2023/03/09 06:38:41;;;;;;;;;5.75;5.75;;;;;;;;119931;1182;24680;-59
2023/03/09 06:41:10;;;;;;;;;5.67;4.00;;;;;;;;119732;1189;25290;-59
2023/03/09 06:43:38;;;;;;;;;5.75;4.25;;;;;;;;119884;1190;24768;-59
2023/03/09 06:46:08;;;;;;;;;7.67;5.00;;;;;;;;119888;1190;25061;-59
2023/03/09 06:48:37;;;;;;;;;6.50;6.00;;;;;;;;119899;1190;24756;-58
2023/03/09 06:51:05;;;;;;;;;9.00;5.00;;;;;;;;119909;1183;25472;-59
2023/03/09 06:53:33;;;;;;;;;6.25;5.50;;;;;;;;119924;1190;25450;-58
2023/03/09 06:56:02;;;;;;;;;7.33;6.67;;;;;;;;119905;1190;25183;-58
2023/03/09 06:58:32;;;;;;;;;6.00;6.00;;;;;;;;119943;1181;25594;-59
2023/03/09 07:01:12;;;;;;;;;6.00;5.00;;;;;;;;119896;1190;25265;-59
2023/03/09 07:03:41;;;;;;;;;9.00;6.67;;;;;;;;119906;1190;25358;-59
2023/03/09 07:06:09;;;;;;;;;8.50;7.00;;;;;;;;119882;1189;25337;-59
2023/03/09 07:08:37;;;;;;;;;9.00;6.00;;;;;;;;119878;1190;25347;-59
2023/03/09 07:11:05;;;;;;;;;8.50;5.25;;;;;;;;119919;1190;25105;-59
2023/03/09 07:13:34;;;;;;;;;9.00;6.00;;;;;;;;120085;1190;24929;-58
2023/03/09 07:16:03;;;;;;;;;6.50;5.50;;;;;;;;120058;1186;25161;-58
2023/03/09 07:18:33;;;;;;;;;4.50;4.00;;;;;;;;120077;1182;25452;-59
2023/03/09 07:21:02;;;;;;;;;7.50;6.75;;;;;;;;120024;1190;26457;-59
2023/03/09 07:23:31;;;;;;;;;5.00;5.00;;;;;;;;120008;1186;25489;-58
2023/03/09 07:26:01;;;;;;;;;5.00;5.00;;;;;;;;120008;1177;24861;-59
2023/03/09 07:28:30;;;;;;;;;5.75;5.75;;;;;;;;119908;1190;24877;-59
2023/03/09 07:30:58;;;;;;;;;6.50;5.00;;;;;;;;119925;1188;24888;-59
2023/03/09 07:33:26;;;;;;;;;6.00;4.00;;;;;;;;120088;1186;25057;-59
2023/03/09 07:35:54;;;;;;;;;5.00;5.00;;;;;;;;120049;1186;25496;-59
2023/03/09 07:38:23;;;;;;;;;6.00;4.25;;;;;;;;120031;1190;24991;-59
2023/03/09 07:40:51;;;;;;;;;4.67;4.67;;;;;;;;120106;1182;25089;-58
2023/03/09 07:43:19;;;;;;;;;2.50;2.50;;;;;;;;120095;1182;24979;-60
2023/03/09 07:45:47;;;;;;;;;5.00;5.00;;;;;;;;120098;1190;25543;-60
2023/03/09 07:48:15;;;;;;;;;5.25;5.25;;;;;;;;120027;1185;24967;-57
2023/03/09 07:50:44;;;;;;;;;5.00;5.00;;;;;;;;120013;1190;25640;-57
2023/03/09 07:53:12;;;;;;;;;6.25;6.25;;;;;;;;120008;1190;25568;-59
2023/03/09 07:55:40;;;;;;;;;4.50;4.50;;;;;;;;120017;1190;26295;-58
2023/03/09 07:58:08;;;;;;;;;7.75;5.50;;;;;;;;120027;1186;25514;-58
2023/03/09 08:00:36;;;;;;;;;5.67;5.67;;;;;;;;120034;1185;25751;-59
2023/03/09 08:03:04;;;;;;;;;6.33;5.67;;;;;;;;119946;1190;24805;-58
2023/03/09 08:05:33;;;;;;;;;5.75;5.00;;;;;;;;119923;1190;25155;-58
2023/03/09 08:08:01;;;;;;;;;7.50;6.25;;;;;;;;119903;1182;25463;-58
2023/03/09 08:10:29;;;;;;;;;6.25;4.50;;;;;;;;119904;1182;25085;-58
2023/03/09 08:12:57;;;;;;;;;5.25;5.00;;;;;;;;120041;1190;25113;-58
2023/03/09 08:15:26;;;;;;;;;4.25;3.00;;;;;;;;119938;1190;25723;-58
2023/03/09 08:17:54;;;;;;;;;6.25;4.50;;;;;;;;119921;1182;24741;-58
2023/03/09 08:20:22;;;;;;;;;8.00;4.50;;;;;;;;120024;1186;25300;-57
2023/03/09 08:22:50;;;;;;;;;3.50;3.00;;;;;;;;120008;1186;25145;-58
2023/03/09 08:25:19;;;;;;;;;4.75;4.75;;;;;;;;120000;1190;24865;-58
2023/03/09 08:27:47;;;;;;;;;5.67;3.67;;;;;;;;120025;1185;25018;-57
2023/03/09 08:30:18;;;;;;;;;6.33;4.00;;;;;;;;120020;1189;25616;-58
2023/03/09 08:32:48;;;;;;;;;5.00;5.00;;;;;;;;119895;1190;25217;-58
2023/03/09 08:35:19;;;;;;;;;6.50;5.50;;;;;;;;120062;1176;25124;-58
2023/03/09 08:37:47;;;;;;;;;6.00;4.50;;;;;;;;119952;1187;25437;-58
2023/03/09 08:40:16;;;;;;;;;6.50;5.00;;;;;;;;119972;1187;24878;-58
2023/03/09 08:42:45;;;;;;;;;6.67;6.67;;;;;;;;119965;1186;24765;-59
2023/03/09 08:45:13;;;;;;;;;5.00;3.75;;;;;;;;119964;1187;25192;-57
2023/03/09 08:47:41;;;;;;;;;3.75;3.75;;;;;;;;120018;1182;25331;-59
2023/03/09 08:50:10;;;;;;;;;4.75;4.75;;;;;;;;120036;1177;25083;-59
2023/03/09 08:52:40;;;;;;;;;4.00;4.00;;;;;;;;119916;1190;25196;-58
2023/03/09 08:55:09;;;;;;;;;5.25;3.75;;;;;;;;120019;1189;25634;-58
2023/03/09 08:57:38;;;;;;;;;5.33;5.33;;;;;;;;119917;1177;25088;-58
2023/03/09 09:00:08;;;;;;;;;5.00;5.00;;;;;;;;119922;1190;25417;-58
2023/03/09 09:02:37;;;;;;;;;6.50;4.00;;;;;;;;119918;1190;25099;-58
2023/03/09 09:05:06;;;;;;;;;8.67;4.67;;;;;;;;120043;1190;25674;-59
2023/03/09 09:07:35;;;;;;;;;6.00;4.33;;;;;;;;119941;1190;25555;-59
2023/03/09 09:10:04;;;;;;;;;9.00;6.33;;;;;;;;120105;1190;24856;-59
2023/03/09 09:12:37;;;;;;;;;5.50;5.50;;;;;;;;119939;1190;26777;-59
2023/03/09 09:15:13;;;;;;;;;4.00;4.00;;;;;;;;120107;1190;25473;-59
2023/03/09 09:17:42;;;;;;;;;9.00;6.50;;;;;;;;119957;1190;25292;-59
2023/03/09 09:20:12;;;;;;;;;11.00;9.00;;;;;;;;119925;1190;25317;-59
2023/03/09 09:22:41;;;;;;;;;5.50;5.00;;;;;;;;120100;1190;24749;-59
2023/03/09 09:25:09;;;;;;;;;8.75;6.50;;;;;;;;119941;1182;25585;-59
2023/03/09 09:27:37;;;;;;;;;8.50;7.00;;;;;;;;120110;1190;24994;-58
2023/03/09 09:30:08;;;;;;;;;9.67;9.33;;;;;;;;120081;1190;24691;-60
2023/03/09 09:32:36;;;;;;;;;6.75;4.25;;;;;;;;120017;1181;25424;-60
2023/03/09 09:35:05;;;;;;;;;12.75;10.00;;;;;;;;120082;1190;25267;-60
2023/03/09 09:37:33;;;;;;;;;11.75;10.50;;;;;;;;120107;1181;25278;-61
2023/03/09 09:40:02;;;;;;;;;11.33;9.67;;;;;;;;120102;1190;24811;-60
2023/03/09 09:42:37;;;;;;;;;18.67;11.00;;;;;;;;120118;1182;24863;-60
2023/03/09 09:45:25;;;;;;;;;15.00;11.50;;;;;;;;119934;1190;25668;-60
2023/03/09 09:47:54;;;;;;;;;16.75;12.25;;;;;;;;120103;1190;25136;-60
2023/03/09 09:50:32;;;;;;;;;17.00;14.33;;;;;;;;119946;1190;25323;-61
2023/03/09 09:53:06;;;;;;;;;12.00;12.00;;;;;;;;119934;1190;25190;-60
2023/03/09 09:55:39;;;;;;;;;14.25;12.75;;;;;;;;119946;1182;25450;-61
2023/03/09 09:58:32;;;;;;;;;13.50;12.50;;;;;;;;119944;1190;25552;-60
2023/03/09 10:01:06;;;;;;;;;13.25;11.00;;;;;;;;119915;1182;25659;-60
2023/03/09 10:03:38;;;;;;;;;13.25;10.25;;;;;;;;119919;1190;25144;-61
2023/03/09 10:06:17;;;;;;;;;15.00;12.00;;;;;;;;119942;1190;24993;-61
2023/03/09 10:08:54;;;;;;;;;17.00;13.50;;;;;;;;120038;1186;24882;-60
2023/03/09 10:11:28;;;;;;;;;12.50;10.50;;;;;;;;120016;1190;25571;-62
2023/03/09 10:14:06;;;;;;;;;21.00;14.00;;;;;;;;120031;1182;25548;-60
2023/03/09 10:16:38;;;;;;;;;15.00;14.00;;;;;;;;119919;1182;24903;-59
2023/03/09 10:19:14;;;;;;;;;15.00;12.00;;;;;;;;119919;1187;24744;-58
2023/03/09 10:21:54;;;;;;;;;15.00;12.67;;;;;;;;120104;1190;25960;-60
2023/03/09 10:24:26;;;;;;;;;14.25;12.25;;;;;;;;119925;1190;25000;-58
2023/03/09 10:27:02;;;;;;;;;14.00;13.00;;;;;;;;120095;1190;25194;-58
2023/03/09 10:29:58;;;;;;;;;14.00;11.00;;;;;;;;119925;1190;25007;-60
2023/03/09 10:32:46;;;;;;;;;14.00;12.67;;;;;;;;120112;1182;25350;-58
2023/03/09 10:35:18;;;;;;;;;17.75;13.00;;;;;;;;120094;1190;24837;-58
2023/03/09 10:37:48;;;;;;;;;17.50;12.25;;;;;;;;120110;1190;25321;-59
2023/03/09 10:40:29;;;;;;;;;19.00;13.00;;;;;;;;119935;1190;25284;-59
2023/03/09 10:42:58;;;;;;;;;11.75;9.00;;;;;;;;119927;1190;24721;-59
2023/03/09 10:45:29;;;;;;;;;11.00;10.50;;;;;;;;119910;1190;25425;-60
2023/03/09 10:48:07;;;;;;;;;15.25;12.25;;;;;;;;119922;1182;25113;-59
2023/03/09 10:50:40;;;;;;;;;15.00;11.67;;;;;;;;119966;1190;25470;-60
2023/03/09 10:53:38;;;;;;;;;17.75;14.25;;;;;;;;119949;1190;25613;-58
2023/03/09 10:56:22;;;;;;;;;15.50;13.00;;;;;;;;120095;1190;25287;-60
2023/03/09 10:59:06;;;;;;;;;16.00;13.25;;;;;;;;120112;1190;25197;-59
2023/03/09 11:01:41;;;;;;;;;14.00;12.75;;;;;;;;120115;1190;25270;-59
2023/03/09 11:04:22;;;;;;;;;15.00;14.00;;;;;;;;120114;1190;25665;-59
2023/03/09 11:07:18;;;;;;;;;15.00;13.00;;;;;;;;120116;1190;25424;-59
2023/03/09 11:09:48;;;;;;;;;14.00;12.67;;;;;;;;119958;1182;24924;-59
2023/03/09 11:12:25;;;;;;;;;13.00;11.67;;;;;;;;120110;1182;25788;-59
2023/03/09 11:15:12;;;;;;;;;17.00;12.00;;;;;;;;119942;1182;25243;-59
2023/03/09 11:17:41;;;;;;;;;10.00;10.00;;;;;;;;119933;1190;25454;-60
2023/03/09 11:20:12;;;;;;;;;11.00;11.00;;;;;;;;120091;1190;25331;-60
2023/03/09 11:22:46;;;;;;;;;16.25;11.00;;;;;;;;120107;1189;25197;-59
2023/03/09 11:25:24;;;;;;;;;11.75;11.00;;;;;;;;120120;1181;25761;-59
2023/03/09 11:27:58;;;;;;;;;14.67;12.33;;;;;;;;119941;1190;24962;-59
2023/03/09 11:30:27;;;;;;;;;7.75;4.75;;;;;;;;119961;1190;25319;-60
2023/03/09 11:32:56;;;;;;;;;12.75;12.25;;;;;;;;119926;1190;25352;-59
2023/03/09 11:35:24;;;;;;;;;9.50;9.25;;;;;;;;120118;1182;25198;-59
2023/03/09 11:38:00;;;;;;;;;12.00;11.00;;;;;;;;120114;1190;25050;-59
2023/03/09 11:40:29;;;;;;;;;18.00;14.00;;;;;;;;120103;1186;25540;-60
2023/03/09 11:43:29;;;;;;;;;16.00;12.25;;;;;;;;119924;1182;25539;-59
2023/03/09 11:46:02;;;;;;;;;7.50;4.00;;;;;;;;119927;1190;25141;-59
2023/03/09 11:48:34;;;;;;;;;10.25;8.50;;;;;;;;119938;1190;25372;-59
2023/03/09 11:51:06;;;;;;;;;12.75;9.75;;;;;;;;119938;1182;25661;-59
2023/03/09 11:53:37;;;;;;;;;13.00;11.50;;;;;;;;120114;1189;24781;-59
2023/03/09 11:56:22;;;;;;;;;11.50;10.00;;;;;;;;119951;1190;24868;-59
2023/03/09 11:59:29;;;;;;;;;9.00;7.50;;;;;;;;119956;1182;25095;-59
2023/03/09 12:02:01;;;;;;;;;11.00;10.33;;;;;;;;119473;1190;25280;-59
2023/03/09 12:04:29;;;;;;;;;15.25;9.75;;;;;;;;120096;1190;25317;-59
2023/03/09 12:07:49;;;;;;;;;8.00;3.67;;;;;;;;119962;1190;25624;-59
2023/03/09 12:10:25;;;;;;;;;9.50;9.50;;;;;;;;119496;1190;25664;-59
2023/03/09 12:13:01;;;;;;;;;10.67;8.33;;;;;;;;119940;1183;25588;-59
2023/03/09 12:15:29;;;;;;;;;11.50;9.00;;;;;;;;120100;1190;24815;-59
2023/03/09 12:17:59;;;;;;;;;12.50;10.50;;;;;;;;120109;1190;25353;-58
2023/03/09 12:20:29;;;;;;;;;11.00;10.00;;;;;;;;119948;1182;25353;-59
2023/03/09 12:22:57;;;;;;;;;12.00;9.00;;;;;;;;119906;1182;25533;-58
2023/03/09 12:25:27;;;;;;;;;14.50;9.25;;;;;;;;119939;1182;25189;-58
2023/03/09 12:27:59;;;;;;;;;11.33;10.00;;;;;;;;119898;1190;25276;-58
2023/03/09 12:30:43;;;;;;;;;8.00;8.00;;;;;;;;119934;1190;24897;-59
2023/03/09 12:33:11;;;;;;;;;10.25;10.25;;;;;;;;119889;1190;26040;-59
2023/03/09 12:35:39;;;;;;;;;11.50;9.00;;;;;;;;119913;1190;25693;-60
2023/03/09 12:38:20;;;;;;;;;10.50;9.00;;;;;;;;119929;1190;25327;-58
2023/03/09 12:40:50;;;;;;;;;8.50;7.00;;;;;;;;119880;1190;25695;-58
2023/03/09 12:43:21;;;;;;;;;8.00;8.00;;;;;;;;119914;1190;25246;-58
2023/03/09 12:45:50;;;;;;;;;9.00;8.00;;;;;;;;119922;1190;25474;-59
2023/03/09 12:48:29;;;;;;;;;8.50;8.50;;;;;;;;119728;1190;25373;-59
2023/03/09 12:51:02;;;;;;;;;6.75;6.75;;;;;;;;119927;1190;25113;-59
2023/03/09 12:53:32;;;;;;;;;10.00;7.25;;;;;;;;119936;1190;25232;-58
2023/03/09 12:56:03;;;;;;;;;8.50;7.00;;;;;;;;119905;1190;25088;-58
2023/03/09 12:58:31;;;;;;;;;8.00;7.67;;;;;;;;119876;1190;25308;-59
2023/03/09 13:01:10;;;;;;;;;7.33;6.00;;;;;;;;119933;1182;25604;-59
2023/03/09 13:03:43;;;;;;;;;8.33;6.67;;;;;;;;119765;1183;25911;-58
2023/03/09 13:06:50;;;;;;;;;8.00;5.25;;;;;;;;119896;1189;25708;-59
2023/03/09 13:09:37;;;;;;;;;6.50;6.50;;;;;;;;119892;1190;25049;-59
2023/03/09 13:12:17;;;;;;;;;8.67;7.00;;;;;;;;119727;1190;25252;-58
2023/03/09 13:14:46;;;;;;;;;9.33;7.33;;;;;;;;119936;1190;25418;-58
2023/03/09 13:17:37;;;;;;;;;11.67;8.00;;;;;;;;119935;1190;25510;-58
2023/03/09 13:20:42;;;;;;;;;6.67;6.00;;;;;;;;120048;1186;24938;-59
2023/03/09 13:23:14;;;;;;;;;9.00;7.00;;;;;;;;119941;1190;24872;-59
2023/03/09 13:25:47;;;;;;;;;6.33;5.00;;;;;;;;119948;1190;25318;-58
2023/03/09 13:28:22;;;;;;;;;9.25;6.75;;;;;;;;120093;1176;25397;-59
2023/03/09 13:30:53;;;;;;;;;10.25;7.25;;;;;;;;119972;1190;25330;-58
2023/03/09 13:33:31;;;;;;;;;9.33;6.33;;;;;;;;119894;1190;24723;-59
2023/03/09 13:36:15;;;;;;;;;9.00;7.50;;;;;;;;119911;1187;25505;-59
2023/03/09 13:38:47;;;;;;;;;6.00;5.50;;;;;;;;119908;1190;25612;-58
2023/03/09 13:41:21;;;;;;;;;6.25;6.00;;;;;;;;119931;1190;25442;-58
2023/03/09 13:43:51;;;;;;;;;8.33;6.00;;;;;;;;119960;1186;25550;-59
2023/03/09 13:46:32;;;;;;;;;4.75;3.00;;;;;;;;119941;1182;25100;-58
2023/03/09 13:49:19;;;;;;;;;7.00;6.67;;;;;;;;119976;1187;25065;-58
2023/03/09 13:51:51;;;;;;;;;6.00;5.00;;;;;;;;120110;1190;24939;-58
2023/03/09 13:54:29;;;;;;;;;6.00;6.00;;;;;;;;120099;1181;25431;-57
2023/03/09 13:57:03;;;;;;;;;5.67;5.00;;;;;;;;120116;1190;24801;-58
2023/03/09 13:59:53;;;;;;;;;8.00;6.50;;;;;;;;120131;1182;25075;-58
2023/03/09 14:02:25;;;;;;;;;6.33;5.00;;;;;;;;120120;1181;25393;-58
2023/03/09 14:04:56;;;;;;;;;9.00;8.00;;;;;;;;119940;1183;24879;-58
2023/03/09 14:07:53;;;;;;;;;8.33;6.00;;;;;;;;120116;1190;25463;-57
2023/03/09 14:10:27;;;;;;;;;9.67;8.00;;;;;;;;120116;1190;25201;-58
2023/03/09 14:13:00;;;;;;;;;5.50;5.50;;;;;;;;120121;1182;24968;-57
2023/03/09 14:15:29;;;;;;;;;8.25;7.75;;;;;;;;119927;1190;25423;-57
2023/03/09 14:17:59;;;;;;;;;6.50;6.25;;;;;;;;120106;1190;25448;-56
2023/03/09 14:20:37;;;;;;;;;8.25;6.00;;;;;;;;119933;1190;25153;-56
2023/03/09 14:23:41;;;;;;;;;6.25;6.25;;;;;;;;119909;1182;25378;-56
2023/03/09 14:26:09;;;;;;;;;5.33;5.00;;;;;;;;120077;1190;25714;-56
2023/03/09 14:28:40;;;;;;;;;10.33;7.00;;;;;;;;119925;1190;25532;-56
2023/03/09 14:31:17;;;;;;;;;6.00;6.00;;;;;;;;119949;1181;25612;-55
2023/03/09 14:34:16;;;;;;;;;8.25;7.00;;;;;;;;120121;1190;25531;-56
2023/03/09 14:36:55;;;;;;;;;7.50;4.00;;;;;;;;119976;1181;25035;-59
2023/03/09 14:39:26;;;;;;;;;6.00;5.67;;;;;;;;120111;1182;25210;-59
2023/03/09 14:42:14;;;;;;;;;7.25;6.00;;;;;;;;120100;1190;25086;-59
2023/03/09 14:44:45;;;;;;;;;6.00;6.00;;;;;;;;119968;1190;25021;-59
2023/03/09 14:47:18;;;;;;;;;5.50;5.00;;;;;;;;119928;1182;25429;-59
2023/03/09 14:49:48;;;;;;;;;8.50;6.25;;;;;;;;119945;1190;25139;-60
2023/03/09 14:52:17;;;;;;;;;10.50;6.75;;;;;;;;119932;1190;25287;-59